sensor_id;sensor_type;location;lat;lon;timestamp;pressure;altitude;pressure_sealevel;temperature;humidity
59274;BME280;45044;41.572;24.730;2023-04-08T00:01:54;91391.63;;;3.09;100.00
59274;BME280;45044;41.572;24.730;2023-04-08T00:04:21;91387.13;;;2.72;100.00
59274;BME280;45044;41.572;24.730;2023-04-08T00:06:48;91392.34;;;2.84;100.00
59274;BME280;45044;41.572;24.730;2023-04-08T00:09:14;91397.63;;;2.75;100.00
59274;BME280;45044;41.572;24.730;2023-04-08T00:11:41;91404.31;;;2.64;100.00
59274;BME280;45044;41.572;24.730;2023-04-08T00:14:08;91403.44;;;2.60;100.00
59274;BME280;45044;41.572;24.730;2023-04-08T00:16:35;91406.66;;;2.57;100.00
59274;BME280;45044;41.572;24.730;2023-04-08T00:19:01;91409.25;;;2.57;100.00
59274;BME280;45044;41.572;24.730;2023-04-08T00:21:34;91390.59;;;2.42;100.00
59274;BME280;45044;41.572;24.730;2023-04-08T00:24:01;91405.69;;;2.49;100.00
59274;BME280;45044;41.572;24.730;2023-04-08T00:26:28;91398.84;;;2.44;100.00
59274;BME280;45044;41.572;24.730;2023-04-08T00:28:55;91395.56;;;2.35;100.00
59274;BME280;45044;41.572;24.730;2023-04-08T00:31:21;91400.06;;;2.25;100.00
59274;BME280;45044;41.572;24.730;2023-04-08T00:33:48;91393.56;;;2.19;100.00
59274;BME280;45044;41.572;24.730;2023-04-08T00:36:15;91388.88;;;1.91;100.00
59274;BME280;45044;41.572;24.730;2023-04-08T00:38:43;91401.91;;;1.82;100.00
59274;BME280;45044;41.572;24.730;2023-04-08T00:41:09;91403.38;;;1.92;100.00
59274;BME280;45044;41.572;24.730;2023-04-08T00:43:36;91407.75;;;2.00;100.00
59274;BME280;45044;41.572;24.730;2023-04-08T00:46:03;91401.16;;;2.03;100.00
59274;BME280;45044;41.572;24.730;2023-04-08T00:48:31;91404.25;;;2.18;100.00
59274;BME280;45044;41.572;24.730;2023-04-08T00:50:58;91403.94;;;2.19;100.00
59274;BME280;45044;41.572;24.730;2023-04-08T00:53:25;91405.97;;;2.13;100.00
59274;BME280;45044;41.572;24.730;2023-04-08T00:55:52;91399.88;;;2.09;100.00
59274;BME280;45044;41.572;24.730;2023-04-08T00:58:18;91407.94;;;1.95;100.00
59274;BME280;45044;41.572;24.730;2023-04-08T01:00:54;91403.56;;;1.87;100.00
59274;BME280;45044;41.572;24.730;2023-04-08T01:06:03;91401.63;;;1.53;100.00
59274;BME280;45044;41.572;24.730;2023-04-08T01:08:34;91397.47;;;1.40;100.00
59274;BME280;45044;41.572;24.730;2023-04-08T01:11:09;91402.28;;;1.50;100.00
59274;BME280;45044;41.572;24.730;2023-04-08T01:13:38;91406.69;;;1.50;100.00
59274;BME280;45044;41.572;24.730;2023-04-08T01:16:12;91402.09;;;1.55;100.00
59274;BME280;45044;41.572;24.730;2023-04-08T01:18:41;91404.50;;;1.61;100.00
59274;BME280;45044;41.572;24.730;2023-04-08T01:21:10;91404.03;;;1.59;100.00
59274;BME280;45044;41.572;24.730;2023-04-08T01:23:45;91399.06;;;1.53;100.00
59274;BME280;45044;41.572;24.730;2023-04-08T01:26:20;91394.31;;;1.55;100.00
59274;BME280;45044;41.572;24.730;2023-04-08T01:28:49;91405.06;;;1.66;100.00
59274;BME280;45044;41.572;24.730;2023-04-08T01:31:18;91403.84;;;1.64;100.00
59274;BME280;45044;41.572;24.730;2023-04-08T01:33:46;91402.28;;;1.50;100.00
59274;BME280;45044;41.572;24.730;2023-04-08T01:36:15;91406.38;;;1.21;100.00
59274;BME280;45044;41.572;24.730;2023-04-08T01:38:42;91402.72;;;1.22;100.00
59274;BME280;45044;41.572;24.730;2023-04-08T01:41:10;91412.88;;;1.27;100.00
59274;BME280;45044;41.572;24.730;2023-04-08T01:43:38;91405.13;;;1.27;100.00
59274;BME280;45044;41.572;24.730;2023-04-08T01:46:07;91399.53;;;1.16;100.00
59274;BME280;45044;41.572;24.730;2023-04-08T01:48:36;91409.69;;;0.91;100.00
59274;BME280;45044;41.572;24.730;2023-04-08T01:51:04;91418.84;;;0.89;100.00
59274;BME280;45044;41.572;24.730;2023-04-08T01:53:32;91419.44;;;0.86;100.00
59274;BME280;45044;41.572;24.730;2023-04-08T01:56:11;91420.06;;;0.82;100.00
59274;BME280;45044;41.572;24.730;2023-04-08T01:58:51;91405.66;;;0.64;100.00
59274;BME280;45044;41.572;24.730;2023-04-08T02:01:20;91424.63;;;0.86;100.00
59274;BME280;45044;41.572;24.730;2023-04-08T02:03:49;91422.63;;;0.91;100.00
59274;BME280;45044;41.572;24.730;2023-04-08T02:06:23;91417.63;;;0.86;100.00
59274;BME280;45044;41.572;24.730;2023-04-08T02:08:53;91426.59;;;0.89;100.00
59274;BME280;45044;41.572;24.730;2023-04-08T02:11:20;91430.81;;;0.54;100.00
59274;BME280;45044;41.572;24.730;2023-04-08T02:13:47;91432.47;;;0.50;100.00
59274;BME280;45044;41.572;24.730;2023-04-08T02:16:22;91432.00;;;0.57;100.00
59274;BME280;45044;41.572;24.730;2023-04-08T02:18:55;91439.25;;;0.81;100.00
59274;BME280;45044;41.572;24.730;2023-04-08T02:21:41;91427.38;;;0.80;100.00
59274;BME280;45044;41.572;24.730;2023-04-08T02:24:12;91447.16;;;0.94;100.00
59274;BME280;45044;41.572;24.730;2023-04-08T02:26:41;91438.44;;;0.99;100.00
59274;BME280;45044;41.572;24.730;2023-04-08T02:29:14;91433.75;;;0.92;100.00
59274;BME280;45044;41.572;24.730;2023-04-08T02:31:42;91436.22;;;0.79;100.00
59274;BME280;45044;41.572;24.730;2023-04-08T02:34:10;91430.63;;;0.59;100.00
59274;BME280;45044;41.572;24.730;2023-04-08T02:36:37;91432.44;;;0.68;100.00
59274;BME280;45044;41.572;24.730;2023-04-08T02:39:06;91433.00;;;0.82;100.00
59274;BME280;45044;41.572;24.730;2023-04-08T02:41:33;91430.44;;;0.74;100.00
59274;BME280;45044;41.572;24.730;2023-04-08T02:43:59;91428.88;;;0.90;100.00
59274;BME280;45044;41.572;24.730;2023-04-08T02:46:26;91394.69;;;0.67;100.00
59274;BME280;45044;41.572;24.730;2023-04-08T02:48:53;91429.06;;;0.85;100.00
59274;BME280;45044;41.572;24.730;2023-04-08T02:51:19;91430.47;;;0.65;100.00
59274;BME280;45044;41.572;24.730;2023-04-08T02:53:47;91440.69;;;0.52;100.00
59274;BME280;45044;41.572;24.730;2023-04-08T02:56:13;91426.50;;;0.58;100.00
59274;BME280;45044;41.572;24.730;2023-04-08T02:58:40;91434.84;;;0.73;100.00
59274;BME280;45044;41.572;24.730;2023-04-08T03:01:07;91432.88;;;0.79;100.00
59274;BME280;45044;41.572;24.730;2023-04-08T03:03:34;91434.25;;;0.76;100.00
59274;BME280;45044;41.572;24.730;2023-04-08T03:06:01;91428.34;;;0.67;100.00
59274;BME280;45044;41.572;24.730;2023-04-08T03:08:28;91426.50;;;0.58;100.00
59274;BME280;45044;41.572;24.730;2023-04-08T03:10:55;91428.22;;;0.37;100.00
59274;BME280;45044;41.572;24.730;2023-04-08T03:13:21;91438.25;;;0.20;100.00
59274;BME280;45044;41.572;24.730;2023-04-08T03:15:48;91440.56;;;0.31;100.00
59274;BME280;45044;41.572;24.730;2023-04-08T03:18:15;91436.13;;;0.40;100.00
59274;BME280;45044;41.572;24.730;2023-04-08T03:20:42;91427.00;;;0.43;100.00
59274;BME280;45044;41.572;24.730;2023-04-08T03:23:08;91425.03;;;0.31;100.00
59274;BME280;45044;41.572;24.730;2023-04-08T03:25:35;91429.75;;;0.20;100.00
59274;BME280;45044;41.572;24.730;2023-04-08T03:28:01;91431.75;;;0.05;100.00
59274;BME280;45044;41.572;24.730;2023-04-08T03:30:29;91431.75;;;-0.04;100.00
59274;BME280;45044;41.572;24.730;2023-04-08T03:32:55;91437.03;;;-0.18;100.00
59274;BME280;45044;41.572;24.730;2023-04-08T03:35:23;91438.59;;;0.01;100.00
59274;BME280;45044;41.572;24.730;2023-04-08T03:37:50;91441.00;;;0.06;100.00
59274;BME280;45044;41.572;24.730;2023-04-08T03:40:17;91438.56;;;0.10;100.00
59274;BME280;45044;41.572;24.730;2023-04-08T03:42:43;91443.28;;;0.17;100.00
59274;BME280;45044;41.572;24.730;2023-04-08T03:45:10;91453.94;;;0.33;100.00
59274;BME280;45044;41.572;24.730;2023-04-08T03:47:39;91449.38;;;0.30;100.00
59274;BME280;45044;41.572;24.730;2023-04-08T03:50:08;91450.75;;;0.36;100.00
59274;BME280;45044;41.572;24.730;2023-04-08T03:52:35;91441.91;;;0.46;100.00
59274;BME280;45044;41.572;24.730;2023-04-08T03:55:02;91456.38;;;0.47;100.00
59274;BME280;45044;41.572;24.730;2023-04-08T03:57:29;91453.78;;;0.47;100.00
59274;BME280;45044;41.572;24.730;2023-04-08T03:59:56;91451.63;;;0.40;100.00
59274;BME280;45044;41.572;24.730;2023-04-08T04:02:26;91455.31;;;0.39;100.00
59274;BME280;45044;41.572;24.730;2023-04-08T04:04:53;91451.50;;;0.37;100.00
59274;BME280;45044;41.572;24.730;2023-04-08T04:07:20;91457.41;;;0.46;100.00
59274;BME280;45044;41.572;24.730;2023-04-08T04:09:46;91453.91;;;0.59;100.00
59274;BME280;45044;41.572;24.730;2023-04-08T04:12:13;91458.16;;;0.64;100.00
59274;BME280;45044;41.572;24.730;2023-04-08T04:14:44;91444.91;;;0.66;100.00
59274;BME280;45044;41.572;24.730;2023-04-08T04:17:12;91456.81;;;0.67;100.00
59274;BME280;45044;41.572;24.730;2023-04-08T04:19:39;91453.03;;;0.46;100.00
59274;BME280;45044;41.572;24.730;2023-04-08T04:22:06;91454.38;;;0.62;100.00
59274;BME280;45044;41.572;24.730;2023-04-08T04:24:33;91455.56;;;0.73;100.00
59274;BME280;45044;41.572;24.730;2023-04-08T04:27:00;91448.25;;;0.75;100.00
59274;BME280;45044;41.572;24.730;2023-04-08T04:29:27;91459.34;;;0.85;100.00
59274;BME280;45044;41.572;24.730;2023-04-08T04:31:56;91457.25;;;0.78;100.00
59274;BME280;45044;41.572;24.730;2023-04-08T04:34:23;91455.72;;;0.68;100.00
59274;BME280;45044;41.572;24.730;2023-04-08T04:36:49;91458.56;;;0.93;100.00
59274;BME280;45044;41.572;24.730;2023-04-08T04:39:17;91458.28;;;0.86;100.00
59274;BME280;45044;41.572;24.730;2023-04-08T04:41:50;91453.63;;;1.09;100.00
59274;BME280;45044;41.572;24.730;2023-04-08T04:44:17;91447.25;;;1.06;100.00
59274;BME280;45044;41.572;24.730;2023-04-08T04:46:45;91440.88;;;0.95;100.00
59274;BME280;45044;41.572;24.730;2023-04-08T04:49:11;91455.47;;;1.09;100.00
59274;BME280;45044;41.572;24.730;2023-04-08T04:51:38;91459.47;;;0.97;100.00
59274;BME280;45044;41.572;24.730;2023-04-08T04:54:05;91460.38;;;1.01;100.00
59274;BME280;45044;41.572;24.730;2023-04-08T04:56:32;91455.09;;;1.28;100.00
59274;BME280;45044;41.572;24.730;2023-04-08T04:58:58;91463.28;;;1.39;100.00
59274;BME280;45044;41.572;24.730;2023-04-08T05:01:25;91463.25;;;1.48;100.00
59274;BME280;45044;41.572;24.730;2023-04-08T05:03:52;91466.50;;;1.66;100.00
59274;BME280;45044;41.572;24.730;2023-04-08T05:06:19;91467.88;;;1.72;100.00
59274;BME280;45044;41.572;24.730;2023-04-08T05:08:46;91461.84;;;1.81;100.00
59274;BME280;45044;41.572;24.730;2023-04-08T05:11:15;91470.47;;;1.94;100.00
59274;BME280;45044;41.572;24.730;2023-04-08T05:13:44;91467.44;;;2.13;100.00
59274;BME280;45044;41.572;24.730;2023-04-08T05:16:10;91469.38;;;2.25;100.00
59274;BME280;45044;41.572;24.730;2023-04-08T05:18:37;91475.06;;;2.39;100.00
59274;BME280;45044;41.572;24.730;2023-04-08T05:21:04;91455.69;;;2.37;100.00
59274;BME280;45044;41.572;24.730;2023-04-08T05:23:31;91468.38;;;2.51;100.00
59274;BME280;45044;41.572;24.730;2023-04-08T05:25:57;91471.38;;;2.41;100.00
59274;BME280;45044;41.572;24.730;2023-04-08T05:28:24;91483.47;;;2.15;100.00
59274;BME280;45044;41.572;24.730;2023-04-08T05:30:52;91477.97;;;2.38;100.00
59274;BME280;45044;41.572;24.730;2023-04-08T05:33:19;91439.53;;;2.31;100.00
59274;BME280;45044;41.572;24.730;2023-04-08T05:35:46;91467.69;;;2.63;100.00
59274;BME280;45044;41.572;24.730;2023-04-08T05:38:13;91471.22;;;2.80;100.00
59274;BME280;45044;41.572;24.730;2023-04-08T05:40:41;91470.03;;;2.90;100.00
59274;BME280;45044;41.572;24.730;2023-04-08T05:43:08;91480.59;;;3.18;100.00
59274;BME280;45044;41.572;24.730;2023-04-08T05:45:34;91481.28;;;3.53;100.00
59274;BME280;45044;41.572;24.730;2023-04-08T05:48:02;91483.91;;;3.78;100.00
59274;BME280;45044;41.572;24.730;2023-04-08T05:50:29;91476.31;;;3.98;100.00
59274;BME280;45044;41.572;24.730;2023-04-08T05:52:56;91481.56;;;4.26;100.00
59274;BME280;45044;41.572;24.730;2023-04-08T05:55:23;91482.34;;;4.27;100.00
59274;BME280;45044;41.572;24.730;2023-04-08T05:57:50;91487.03;;;4.50;100.00
59274;BME280;45044;41.572;24.730;2023-04-08T06:00:16;91494.06;;;4.90;100.00
59274;BME280;45044;41.572;24.730;2023-04-08T06:02:45;91460.31;;;5.10;100.00
59274;BME280;45044;41.572;24.730;2023-04-08T06:05:12;91488.13;;;5.22;100.00
59274;BME280;45044;41.572;24.730;2023-04-08T06:07:39;91489.16;;;5.66;100.00
59274;BME280;45044;41.572;24.730;2023-04-08T06:10:07;91493.72;;;5.69;100.00
59274;BME280;45044;41.572;24.730;2023-04-08T06:12:35;91488.16;;;5.55;100.00
59274;BME280;45044;41.572;24.730;2023-04-08T06:15:03;91495.72;;;5.44;100.00
59274;BME280;45044;41.572;24.730;2023-04-08T06:17:30;91503.38;;;5.36;100.00
59274;BME280;45044;41.572;24.730;2023-04-08T06:19:57;91499.03;;;4.96;100.00
59274;BME280;45044;41.572;24.730;2023-04-08T06:22:23;91499.66;;;5.21;100.00
59274;BME280;45044;41.572;24.730;2023-04-08T06:24:50;91497.41;;;5.20;100.00
59274;BME280;45044;41.572;24.730;2023-04-08T06:27:17;91493.56;;;5.01;100.00
59274;BME280;45044;41.572;24.730;2023-04-08T06:29:44;91488.16;;;5.38;100.00
59274;BME280;45044;41.572;24.730;2023-04-08T06:32:12;91492.81;;;5.61;100.00
59274;BME280;45044;41.572;24.730;2023-04-08T06:34:39;91502.44;;;6.09;100.00
59274;BME280;45044;41.572;24.730;2023-04-08T06:37:06;91500.94;;;6.08;100.00
59274;BME280;45044;41.572;24.730;2023-04-08T06:39:33;91495.22;;;5.86;100.00
59274;BME280;45044;41.572;24.730;2023-04-08T06:42:00;91501.91;;;6.20;100.00
59274;BME280;45044;41.572;24.730;2023-04-08T06:44:27;91492.22;;;6.56;100.00
59274;BME280;45044;41.572;24.730;2023-04-08T06:46:54;91492.19;;;6.96;100.00
59274;BME280;45044;41.572;24.730;2023-04-08T06:49:21;91490.09;;;7.25;100.00
59274;BME280;45044;41.572;24.730;2023-04-08T06:51:48;91486.06;;;7.51;100.00
59274;BME280;45044;41.572;24.730;2023-04-08T06:54:15;91491.25;;;7.04;100.00
59274;BME280;45044;41.572;24.730;2023-04-08T06:56:54;91485.94;;;7.21;100.00
59274;BME280;45044;41.572;24.730;2023-04-08T06:59:25;91486.53;;;6.70;100.00
59274;BME280;45044;41.572;24.730;2023-04-08T07:01:52;91491.13;;;6.77;100.00
59274;BME280;45044;41.572;24.730;2023-04-08T07:04:19;91487.13;;;6.64;100.00
59274;BME280;45044;41.572;24.730;2023-04-08T07:06:47;91459.78;;;6.77;100.00
59274;BME280;45044;41.572;24.730;2023-04-08T07:09:17;91486.97;;;6.96;100.00
59274;BME280;45044;41.572;24.730;2023-04-08T07:11:45;91485.88;;;6.97;100.00
59274;BME280;45044;41.572;24.730;2023-04-08T07:14:17;91494.44;;;7.37;100.00
59274;BME280;45044;41.572;24.730;2023-04-08T07:16:46;91498.25;;;7.90;100.00
59274;BME280;45044;41.572;24.730;2023-04-08T07:19:14;91502.34;;;8.15;100.00
59274;BME280;45044;41.572;24.730;2023-04-08T07:21:43;91500.22;;;8.24;100.00
59274;BME280;45044;41.572;24.730;2023-04-08T07:24:11;91500.72;;;8.07;100.00
59274;BME280;45044;41.572;24.730;2023-04-08T07:26:40;91497.50;;;8.17;100.00
59274;BME280;45044;41.572;24.730;2023-04-08T07:29:19;91501.19;;;8.39;100.00
59274;BME280;45044;41.572;24.730;2023-04-08T07:31:56;91488.50;;;8.45;100.00
59274;BME280;45044;41.572;24.730;2023-04-08T07:34:24;91489.69;;;8.79;100.00
59274;BME280;45044;41.572;24.730;2023-04-08T07:36:53;91494.28;;;8.89;100.00
59274;BME280;45044;41.572;24.730;2023-04-08T07:39:21;91495.63;;;9.44;100.00
59274;BME280;45044;41.572;24.730;2023-04-08T07:41:53;91489.75;;;9.20;100.00
59274;BME280;45044;41.572;24.730;2023-04-08T07:44:21;91489.78;;;9.24;100.00
59274;BME280;45044;41.572;24.730;2023-04-08T07:46:48;91498.06;;;9.68;100.00
59274;BME280;45044;41.572;24.730;2023-04-08T07:49:17;91494.72;;;10.27;100.00
59274;BME280;45044;41.572;24.730;2023-04-08T07:51:44;91494.78;;;10.35;98.54
59274;BME280;45044;41.572;24.730;2023-04-08T07:54:12;91494.25;;;10.78;88.05
59274;BME280;45044;41.572;24.730;2023-04-08T07:56:43;91489.44;;;12.96;81.92
59274;BME280;45044;41.572;24.730;2023-04-08T07:59:10;91479.75;;;13.42;63.28
59274;BME280;45044;41.572;24.730;2023-04-08T08:01:37;91484.25;;;14.06;66.08
59274;BME280;45044;41.572;24.730;2023-04-08T08:04:04;91489.47;;;14.13;60.78
59274;BME280;45044;41.572;24.730;2023-04-08T08:06:31;91486.78;;;14.20;60.98
59274;BME280;45044;41.572;24.730;2023-04-08T08:08:59;91490.13;;;13.79;56.38
59274;BME280;45044;41.572;24.730;2023-04-08T08:11:26;91485.81;;;13.39;56.37
59274;BME280;45044;41.572;24.730;2023-04-08T08:13:53;91490.72;;;12.36;59.67
59274;BME280;45044;41.572;24.730;2023-04-08T08:16:20;91486.66;;;13.28;58.76
59274;BME280;45044;41.572;24.730;2023-04-08T08:18:47;91475.44;;;13.74;59.30
59274;BME280;45044;41.572;24.730;2023-04-08T08:21:14;91482.56;;;15.04;56.52
59274;BME280;45044;41.572;24.730;2023-04-08T08:23:41;91479.88;;;15.66;53.28
59274;BME280;45044;41.572;24.730;2023-04-08T08:26:08;91481.94;;;15.79;53.50
59274;BME280;45044;41.572;24.730;2023-04-08T08:28:37;91480.38;;;16.33;51.65
59274;BME280;45044;41.572;24.730;2023-04-08T08:31:04;91480.06;;;15.52;49.31
59274;BME280;45044;41.572;24.730;2023-04-08T08:33:32;91492.06;;;15.60;53.80
59274;BME280;45044;41.572;24.730;2023-04-08T08:35:59;91490.94;;;14.60;55.36
59274;BME280;45044;41.572;24.730;2023-04-08T08:38:26;91487.00;;;14.37;56.54
59274;BME280;45044;41.572;24.730;2023-04-08T08:40:54;91484.06;;;14.28;57.52
59274;BME280;45044;41.572;24.730;2023-04-08T08:43:23;91481.63;;;12.63;57.81
59274;BME280;45044;41.572;24.730;2023-04-08T08:45:51;91484.69;;;11.55;63.43
59274;BME280;45044;41.572;24.730;2023-04-08T08:48:17;91480.91;;;11.42;64.92
59274;BME280;45044;41.572;24.730;2023-04-08T08:50:45;91480.16;;;11.30;68.93
59274;BME280;45044;41.572;24.730;2023-04-08T08:53:12;91476.19;;;10.65;74.55
59274;BME280;45044;41.572;24.730;2023-04-08T08:55:39;91470.34;;;10.34;77.91
59274;BME280;45044;41.572;24.730;2023-04-08T08:58:26;91469.16;;;10.17;85.13
59274;BME280;45044;41.572;24.730;2023-04-08T09:00:54;91468.25;;;9.94;82.93
59274;BME280;45044;41.572;24.730;2023-04-08T09:03:27;91473.09;;;9.43;86.41
59274;BME280;45044;41.572;24.730;2023-04-08T09:05:59;91474.34;;;9.15;97.74
59274;BME280;45044;41.572;24.730;2023-04-08T09:11:18;91447.78;;;8.82;100.00
59274;BME280;45044;41.572;24.730;2023-04-08T09:13:47;91472.72;;;9.00;100.00
59274;BME280;45044;41.572;24.730;2023-04-08T09:16:17;91478.72;;;8.69;100.00
59274;BME280;45044;41.572;24.730;2023-04-08T09:18:46;91479.34;;;8.90;100.00
59274;BME280;45044;41.572;24.730;2023-04-08T09:21:16;91488.47;;;9.03;100.00
59274;BME280;45044;41.572;24.730;2023-04-08T09:23:45;91483.97;;;9.04;100.00
59274;BME280;45044;41.572;24.730;2023-04-08T09:26:14;91485.44;;;9.01;98.34
59274;BME280;45044;41.572;24.730;2023-04-08T09:28:43;91467.91;;;8.44;86.53
59274;BME280;45044;41.572;24.730;2023-04-08T09:33:52;91486.59;;;8.42;91.76
59274;BME280;45044;41.572;24.730;2023-04-08T09:36:20;91489.31;;;8.49;100.00
59274;BME280;45044;41.572;24.730;2023-04-08T09:38:49;91488.28;;;8.85;97.93
59274;BME280;45044;41.572;24.730;2023-04-08T09:41:17;91478.09;;;8.80;89.66
59274;BME280;45044;41.572;24.730;2023-04-08T09:43:50;91485.75;;;8.92;100.00
59274;BME280;45044;41.572;24.730;2023-04-08T09:49:28;91486.44;;;9.27;82.30
59274;BME280;45044;41.572;24.730;2023-04-08T09:57:29;91483.41;;;10.12;74.59
59274;BME280;45044;41.572;24.730;2023-04-08T10:00:16;91488.44;;;10.39;64.07
59274;BME280;45044;41.572;24.730;2023-04-08T10:03:10;91485.00;;;10.32;64.29
59274;BME280;45044;41.572;24.730;2023-04-08T10:05:40;91490.94;;;10.17;75.38
59274;BME280;45044;41.572;24.730;2023-04-08T10:08:09;91478.50;;;10.14;77.44
59274;BME280;45044;41.572;24.730;2023-04-08T10:10:40;91480.88;;;10.34;89.75
59274;BME280;45044;41.572;24.730;2023-04-08T10:13:08;91483.88;;;10.36;77.67
59274;BME280;45044;41.572;24.730;2023-04-08T10:15:36;91487.03;;;9.97;72.25
59274;BME280;45044;41.572;24.730;2023-04-08T10:23:02;91483.38;;;9.21;81.43
59274;BME280;45044;41.572;24.730;2023-04-08T10:25:34;91485.50;;;9.46;74.14
59274;BME280;45044;41.572;24.730;2023-04-08T10:33:14;91487.94;;;9.25;84.88
59274;BME280;45044;41.572;24.730;2023-04-08T10:35:45;91488.50;;;8.72;79.38
59274;BME280;45044;41.572;24.730;2023-04-08T10:38:13;91472.03;;;8.14;85.10
59274;BME280;45044;41.572;24.730;2023-04-08T10:40:42;91484.59;;;8.32;86.84
59274;BME280;45044;41.572;24.730;2023-04-08T10:43:10;91479.59;;;8.50;74.01
59274;BME280;45044;41.572;24.730;2023-04-08T10:45:42;91487.31;;;8.66;76.97
59274;BME280;45044;41.572;24.730;2023-04-08T10:48:13;91498.84;;;8.34;87.50
59274;BME280;45044;41.572;24.730;2023-04-08T10:50:40;91480.38;;;8.23;88.98
59274;BME280;45044;41.572;24.730;2023-04-08T10:53:07;91488.44;;;8.11;77.55
59274;BME280;45044;41.572;24.730;2023-04-08T10:55:34;91479.22;;;8.21;75.98
59274;BME280;45044;41.572;24.730;2023-04-08T10:58:07;91479.47;;;8.12;75.78
59274;BME280;45044;41.572;24.730;2023-04-08T11:00:36;91476.78;;;8.35;83.79
59274;BME280;45044;41.572;24.730;2023-04-08T11:03:06;91485.88;;;8.14;68.91
59274;BME280;45044;41.572;24.730;2023-04-08T11:05:33;91488.56;;;8.22;72.04
59274;BME280;45044;41.572;24.730;2023-04-08T11:08:02;91477.53;;;8.09;74.66
59274;BME280;45044;41.572;24.730;2023-04-08T11:10:37;91481.19;;;8.00;80.69
59274;BME280;45044;41.572;24.730;2023-04-08T11:13:07;91480.78;;;8.25;87.08
59274;BME280;45044;41.572;24.730;2023-04-08T11:15:38;91462.56;;;8.36;78.68
59274;BME280;45044;41.572;24.730;2023-04-08T11:18:05;91475.38;;;8.72;69.62
59274;BME280;45044;41.572;24.730;2023-04-08T11:20:32;91469.75;;;8.70;67.21
59274;BME280;45044;41.572;24.730;2023-04-08T11:23:02;91473.28;;;8.85;58.40
59274;BME280;45044;41.572;24.730;2023-04-08T11:25:29;91472.75;;;9.03;56.56
59274;BME280;45044;41.572;24.730;2023-04-08T11:27:58;91468.78;;;9.20;65.13
59274;BME280;45044;41.572;24.730;2023-04-08T11:30:26;91467.09;;;9.39;63.45
59274;BME280;45044;41.572;24.730;2023-04-08T11:32:57;91464.00;;;9.30;67.63
59274;BME280;45044;41.572;24.730;2023-04-08T11:35:28;91456.13;;;9.30;65.94
59274;BME280;45044;41.572;24.730;2023-04-08T11:37:56;91452.44;;;8.96;78.01
59274;BME280;45044;41.572;24.730;2023-04-08T11:40:24;91468.00;;;8.82;80.16
59274;BME280;45044;41.572;24.730;2023-04-08T11:42:51;91459.94;;;8.63;87.21
59274;BME280;45044;41.572;24.730;2023-04-08T11:45:19;91464.97;;;8.18;85.50
59274;BME280;45044;41.572;24.730;2023-04-08T11:47:47;91462.03;;;7.96;97.29
59274;BME280;45044;41.572;24.730;2023-04-08T11:50:32;91468.56;;;8.06;100.00
59274;BME280;45044;41.572;24.730;2023-04-08T11:52:59;91470.75;;;8.31;100.00
59274;BME280;45044;41.572;24.730;2023-04-08T11:55:32;91464.78;;;8.34;100.00
59274;BME280;45044;41.572;24.730;2023-04-08T11:58:03;91456.19;;;8.34;100.00
59274;BME280;45044;41.572;24.730;2023-04-08T12:00:30;91453.78;;;8.83;100.00
59274;BME280;45044;41.572;24.730;2023-04-08T12:02:58;91459.25;;;8.67;94.76
59274;BME280;45044;41.572;24.730;2023-04-08T12:05:25;91455.81;;;8.62;100.00
59274;BME280;45044;41.572;24.730;2023-04-08T12:07:56;91449.66;;;9.20;100.00
59274;BME280;45044;41.572;24.730;2023-04-08T12:10:23;91451.63;;;9.76;82.59
59274;BME280;45044;41.572;24.730;2023-04-08T12:12:53;91451.22;;;10.30;85.55
59274;BME280;45044;41.572;24.730;2023-04-08T12:15:20;91451.22;;;10.34;71.02
59274;BME280;45044;41.572;24.730;2023-04-08T12:17:47;91439.69;;;10.53;88.93
59274;BME280;45044;41.572;24.730;2023-04-08T12:20:18;91422.91;;;10.90;79.34
59274;BME280;45044;41.572;24.730;2023-04-08T12:22:45;91424.31;;;10.55;72.43
59274;BME280;45044;41.572;24.730;2023-04-08T12:25:17;91425.28;;;10.25;74.81
59274;BME280;45044;41.572;24.730;2023-04-08T12:27:44;91430.13;;;10.15;80.51
59274;BME280;45044;41.572;24.730;2023-04-08T12:30:11;91420.31;;;10.05;78.91
59274;BME280;45044;41.572;24.730;2023-04-08T12:32:38;91424.72;;;9.93;79.94
59274;BME280;45044;41.572;24.730;2023-04-08T12:35:05;91421.56;;;9.69;84.23
59274;BME280;45044;41.572;24.730;2023-04-08T12:37:32;91422.88;;;9.94;84.16
59274;BME280;45044;41.572;24.730;2023-04-08T12:39:59;91419.00;;;9.77;83.69
59274;BME280;45044;41.572;24.730;2023-04-08T12:42:26;91421.66;;;9.80;81.08
59274;BME280;45044;41.572;24.730;2023-04-08T12:44:53;91413.09;;;9.38;81.68
59274;BME280;45044;41.572;24.730;2023-04-08T12:47:20;91415.38;;;9.43;92.84
59274;BME280;45044;41.572;24.730;2023-04-08T12:49:48;91410.47;;;9.38;86.04
59274;BME280;45044;41.572;24.730;2023-04-08T12:52:15;91410.97;;;9.55;76.63
59274;BME280;45044;41.572;24.730;2023-04-08T12:54:43;91409.09;;;9.52;92.63
59274;BME280;45044;41.572;24.730;2023-04-08T12:57:10;91408.06;;;9.67;83.01
59274;BME280;45044;41.572;24.730;2023-04-08T12:59:37;91405.63;;;9.44;84.73
59274;BME280;45044;41.572;24.730;2023-04-08T13:02:05;91405.72;;;9.55;80.76
59274;BME280;45044;41.572;24.730;2023-04-08T13:04:33;91405.31;;;9.53;85.07
59274;BME280;45044;41.572;24.730;2023-04-08T13:07:00;91396.69;;;9.49;81.82
59274;BME280;45044;41.572;24.730;2023-04-08T13:09:27;91398.44;;;9.33;80.01
59274;BME280;45044;41.572;24.730;2023-04-08T13:11:56;91395.13;;;9.40;80.85
59274;BME280;45044;41.572;24.730;2023-04-08T13:14:24;91393.84;;;9.19;82.05
59274;BME280;45044;41.572;24.730;2023-04-08T13:16:51;91394.72;;;8.93;83.71
59274;BME280;45044;41.572;24.730;2023-04-08T13:19:18;91389.69;;;8.77;92.57
59274;BME280;45044;41.572;24.730;2023-04-08T13:21:46;91393.59;;;8.56;95.51
59274;BME280;45044;41.572;24.730;2023-04-08T13:24:36;91377.00;;;8.48;95.35
59274;BME280;45044;41.572;24.730;2023-04-08T13:27:12;91382.84;;;8.34;100.00